Tiempo atmosférico en la estación meteorológica de Figueres, Girona (47 m.)



Fecha
DESCASC
Temp. máxima en grados centígrados (hora)
DESCASC
Temp. mínima en grados centígrados (hora)
DESCASC
Temp. media en grados centígrados
DESCASC
Racha de viento máxima en m/sg (hora)
DESCASC
Velocidad máxima media en intervalos de 10 minutos(hora)
DESCASC
Precipitaciones diarias en mm
DESCASC
Precipitaciones de 00:00 a 06:00 en mm
DESCASC
Precipitaciones de 06:00 a 12:00 en mm
DESCASC
Precipitaciones de 12:00 a 18:00 en mm
DESCASC
Precipitaciones de 18:00 a 24:00 en mm
DESCASC
15-11-2018 19 (11:10) 15 (03:50) 17 6.11 (11:20) 2.78 (13:40) 8.8 2.8 3.4 2.6 0
14-11-2018 21 (14:40) 14.8 (06:00) 17.9 5 (14:20) 2.22 (14:20) 1 0 0 0 1
13-11-2018 21.2 (12:40) 15.4 (03:50) 18.3 6.39 (06:30) 3.06 (06:30) 0 0 0 0 0
12-11-2018 21.1 (11:40) 14.9 (07:20) 18 7.22 (11:20) 3.61 (11:50) 0 0 0 0 0
11-11-2018 24.2 (15:00) 10.6 (00:00) 17.4 9.72 (13:40) 5.28 (15:50) 0 0 0 0 0
10-11-2018 19.3 (15:20) 7.5 (00:00) 13.4 4.72 (16:20) 1.94 (16:20) 0 0 0 0 0
09-11-2018 17.9 (14:10) 9.6 (00:00) 13.8 13.61 (12:40) 6.39 (12:10) 20.4 8.8 11.6 0 0
08-11-2018 19.3 (13:30) 11.4 (00:00) 15.3 10.83 (13:40) 5.56 (14:50) 0 0 0 0 0
07-11-2018 20.4 (13:10) 7 (00:00) 13.7 11.11 (13:00) 5.28 (12:50) 0 0 0 0 0
06-11-2018 18.5 (15:00) 9 (00:00) 13.8 7.5 (02:20) 3.61 (00:10) 2.2 2.2 0 0 0
05-11-2018 20.1 (12:00) 13.8 (00:00) 17 11.39 (22:10) 5.28 (22:10) 3.2 0 0 0 3.2
04-11-2018 22.6 (13:50) 10.7 (00:00) 16.7 5 (18:40) 2.5 (14:10) 0 0 0 0 0
03-11-2018 18.3 (13:30) 8.4 (00:00) 13.3 12.78 (05:30) 5.83 (10:40) 0 0 0 0 0
02-11-2018 18.3 (14:20) 7.8 (00:00) 13 14.44 (17:30) 6.67 (19:00) 0 0 0 0 0
01-11-2018 17.5 (14:40) 8.4 (00:00) 12.9 3.89 (15:00) 1.94 (15:10) 0.8 0.4 0.2 0.2 0
31-10-2018 16 (14:20) 9.8 (00:00) 12.9 12.5 (14:30) 5.56 (14:30) 25.8 10.2 9.8 3.6 2.2
30-10-2018 16.5 (14:40) 5.5 (00:00) 11 10.28 (14:00) 4.72 (14:10) 0 0 0 0 0
29-10-2018 10.3 (15:00) 7.9 (00:00) 9.1 11.39 (12:40) 4.72 (10:20) 0 0 0 0 0
28-10-2018 10.8 (02:20) 7.7 (00:00) 9.3 12.5 (06:00) 5.56 (06:00) 7 0 2.2 4.8 0
27-10-2018 16.5 (01:10) 10.1 (00:00) 13.3 13.89 (20:50) 6.39 (20:20) 15.8 1.8 6 8 0
26-10-2018 20.6 (14:10) 12.4 (00:00) 16.5 3.89 (15:30) 1.94 (15:30) 0 0 0 0 0
25-10-2018 26.4 (14:50) 13.6 (00:00) 20 7.78 (00:20) 3.61 (00:20) 0 0 0 0 0
24-10-2018 29.2 (15:10) 11.8 (00:00) 20.5 15.56 (14:40) 7.22 (13:20) 0 0 0 0 0
23-10-2018 24.6 (14:30) 13.2 (00:00) 18.9 10 (20:10) 4.72 (20:30) 0 0 0 0 0
22-10-2018 23.9 (16:40) 14 (00:00) 18.9 8.61 (06:20) 4.72 (06:40) 0 0 0 0 0
21-10-2018 25.7 (15:10) 13.7 (00:00) 19.7 4.72 (15:30) 2.5 (15:50) 0 0 0 0 0
20-10-2018 23 (14:20) 16.7 (00:00) 19.9 5.28 (12:50) 2.5 (13:00) 0 0 0 0 0
19-10-2018 23.2 (14:10) 18.6 (00:00) 20.9 5.83 (14:40) 2.5 (02:10) 0 0 0 0 0
18-10-2018 19.7 (15:10) 15.9 (00:00) 17.8 10.28 (06:30) 4.44 (06:30) 47.6 6.6 40.6 0.4 0

Gráficas

Temp. máximas Temp. mínimas Temp. medias Precipitaciones Rachas de viento máximas Velocidades máximas media en intervalos de 10 minutos

Datos horarios

Fecha y hora oficial Temperatura (ºC) Velocidad del viento (km/h) Dirección del viento Racha (km/h) Dirección de racha Precipitación (mm) Presión (hPa) Tendencia (hPa) Humedad (%)
2018-11-16 23:00:00 15.2 3 Oeste 10 Nordeste 0 -- -- 91
2018-11-16 22:00:00 15.3 4 Norte 6 Nordeste 0 -- -- 89
2018-11-16 21:00:00 15.5 0 Calma 6 Nordeste 0 -- -- 90
2018-11-16 20:00:00 15.6 3 Este 5 Este 0 -- -- 91
2018-11-16 19:00:00 15.7 0 Calma 5 Noroeste 0 -- -- 92
2018-11-16 18:00:00 16 0 Calma 6 Nordeste 0 -- -- 88
2018-11-16 17:00:00 16.4 3 Este 8 Noroeste 0 -- -- 87
2018-11-16 16:00:00 17 2 Norte 8 Noroeste 0 -- -- 83
2018-11-16 15:00:00 17.9 3 Oeste 10 Noroeste 0 -- -- 80
2018-11-16 14:00:00 17.2 4 Sur 14 Sur 0 -- -- 82
2018-11-16 13:00:00 16.9 4 Sudeste 10 Sur 0 -- -- 85
2018-11-16 12:00:00 16.9 4 Sur 10 Sudeste 0 -- -- 86
2018-11-16 11:00:00 16.7 4 Este 8 Nordeste 0.2 -- -- 91
2018-11-16 10:00:00 15.6 0 Calma 5 Este 0 -- -- 99
2018-11-16 09:00:00 15 0 Calma 4 Nordeste 0.2 -- -- 99
2018-11-16 08:00:00 14.7 0 Calma 5 Norte 3.8 -- -- 99
2018-11-16 07:00:00 14.5 0 Calma 4 Noroeste 11.4 -- -- 98
2018-11-16 06:00:00 14.4 3 Sudoeste 14 Sudeste 6.6 -- -- 97
2018-11-16 05:00:00 14.2 2 Norte 6 Norte 0 -- -- 96
2018-11-16 04:00:00 14.3 0 Calma 8 Noroeste 0 -- -- 96
2018-11-16 03:00:00 14.4 4 Norte 7 Norte 0 -- -- 95
2018-11-16 02:00:00 15.1 4 Este 10 Nordeste 0 -- -- 92
2018-11-16 01:00:00 14.9 0 Calma 7 Noroeste 0 -- -- 95
2018-11-16 00:00:00 15.2 4 Noroeste 9 Noroeste 0 -- -- 95
2018-11-15 23:00:00 15.3 0 Calma 8 Nordeste 0 -- -- 94
2018-11-15 22:00:00 15.3 2 Este 10 Oeste 0 -- -- 95
2018-11-15 21:00:00 15.5 3 Noroeste 8 Noroeste 0 -- -- 95
2018-11-15 20:00:00 15.6 4 Norte 13 Norte 0 -- -- 93
2018-11-15 19:00:00 15.8 4 Nordeste 14 Nordeste 0 -- -- 88
2018-11-15 18:00:00 16.8 5 Nordeste 10 Norte 0 -- -- 94
2018-11-15 17:00:00 17 6 Sudeste 12 Sudeste 0.4 -- -- 94
2018-11-15 16:00:00 17.1 5 Sudeste 15 Sudeste 1.8 -- -- 93
2018-11-15 15:00:00 17.6 6 Sudeste 14 Sur 0.4 -- -- 88
2018-11-15 14:00:00 18.2 8 Sudeste 20 Sudeste 0 -- -- 87
2018-11-15 13:00:00 18.6 10 Sudeste 21 Sudeste 0 -- -- 82
2018-11-15 12:00:00 18.5 8 Sudeste 22 Sur 0 -- -- 86
2018-11-15 11:00:00 18.8 8 Sur 19 Sur 0 -- -- 86
2018-11-15 10:00:00 17.8 7 Sudeste 17 Sudeste 0 -- -- 93
2018-11-15 09:00:00 16 0 Calma 8 Este 0.2 -- -- 97
2018-11-15 08:00:00 15.6 4 Este 9 Este 0 -- -- 98
2018-11-15 07:00:00 15.4 5 Sur 13 Oeste 3.2 -- -- 98
2018-11-15 06:00:00 15.3 0 Calma 11 Nordeste 0 -- -- 98
2018-11-15 05:00:00 15.1 2 Norte 7 Nordeste 0.2 -- -- 98
2018-11-15 04:00:00 15 0 Calma 6 Sur 1 -- -- 98
2018-11-15 03:00:00 15.2 0 Calma 5 Noroeste 0.6 -- -- 97
2018-11-15 02:00:00 15.5 2 Oeste 6 Sudoeste 0.6 -- -- 97
2018-11-15 01:00:00 16 0 Calma 10 Oeste 0.4 -- -- 95
2018-11-15 00:00:00 16.1 4 Noroeste 12 Noroeste 0.6 -- -- 93
2018-11-14 23:00:00 16.7 5 Oeste 14 Oeste 0 -- -- 94
2018-11-14 22:00:00 17.2 4 Sudoeste 9 Sudoeste 0 -- -- 96
2018-11-14 21:00:00 17.1 4 Oeste 9 Oeste 0.2 -- -- 96
2018-11-14 20:00:00 17 4 Oeste 13 Oeste 0.2 -- -- 95
2018-11-14 19:00:00 16.8 4 Sudoeste 8 Sur 0 -- -- 94
2018-11-14 18:00:00 17.2 4 Sudoeste 13 Sur 0 -- -- 93
2018-11-14 17:00:00 18.4 7 Sur 15 Sur 0 -- -- 87
2018-11-14 16:00:00 19.7 6 Sur 14 Sur 0 -- -- 80
2018-11-14 15:00:00 20.9 6 Sur 18 Sur 0 -- -- 72
2018-11-14 14:00:00 20.3 8 Sur 16 Sur 0 -- -- 75
2018-11-14 13:00:00 20.5 3 Sur 10 Sudoeste 0 -- -- 72
2018-11-14 12:00:00 19.9 4 Sudoeste 9 Sudoeste 0 -- -- 74
2018-11-14 11:00:00 17.8 0 Calma 6 Sudoeste 0 -- -- 85
2018-11-14 10:00:00 16.6 3 Noroeste 5 Noroeste 0 -- -- 90
2018-11-14 09:00:00 15.4 3 Oeste 5 Sudoeste 0 -- -- 93
2018-11-14 08:00:00 14.9 0 Calma 6 Sur 0 -- -- 93
2018-11-14 07:00:00 15.1 4 Noroeste 8 Norte 0 -- -- 94
2018-11-14 06:00:00 14.8 4 Noroeste 6 Noroeste 0 -- -- 93
2018-11-14 05:00:00 15.2 0 Calma 3 Noroeste 0 -- -- 92
2018-11-14 04:00:00 15.5 0 Calma 5 Nordeste 0 -- -- 90
2018-11-14 03:00:00 16 3 Noroeste 5 Noroeste 0 -- -- 87
2018-11-14 02:00:00 16.5 0 Calma 8 Norte 0 -- -- 84
2018-11-14 01:00:00 16.9 2 Nordeste 6 Nordeste 0 -- -- 83
2018-11-14 00:00:00 17.2 3 Nordeste 10 Nordeste 0 -- -- 81
2018-11-13 23:00:00 17 4 Nordeste 8 Nordeste 0 -- -- 82
2018-11-13 22:00:00 17 2 Norte 13 Nordeste 0 -- -- 82
2018-11-13 21:00:00 17.1 7 Nordeste 12 Nordeste 0 -- -- 82
2018-11-13 20:00:00 16.8 6 Nordeste 12 Nordeste 0 -- -- 83
2018-11-13 19:00:00 16.8 5 Nordeste 13 Este 0 -- -- 85
2018-11-13 18:00:00 17.6 5 Este 14 Este 0 -- -- 81
2018-11-13 17:00:00 18.4 5 Sudeste 13 Sudeste 0 -- -- 78
2018-11-13 16:00:00 19.5 5 Sudeste 13 Este 0 -- -- 76
2018-11-13 15:00:00 20.1 5 Este 12 Este 0 -- -- 74
2018-11-13 14:00:00 20.2 6 Sudeste 14 Sudeste 0 -- -- 74
2018-11-13 13:00:00 21 5 Sudeste 14 Este 0 -- -- 73
2018-11-13 12:00:00 19.6 4 Nordeste 12 Nordeste 0 -- -- 71
2018-11-13 11:00:00 18.7 6 Nordeste 15 Nordeste 0 -- -- 74
2018-11-13 10:00:00 18.5 8 Nordeste 18 Nordeste 0 -- -- 72
2018-11-13 09:00:00 17.6 6 Nordeste 13 Nordeste 0 -- -- 76
2018-11-13 08:00:00 17.2 3 Norte 16 Nordeste 0 -- -- 81
2018-11-13 07:00:00 16.8 9 Nordeste 23 Nordeste 0 -- -- 83
2018-11-13 06:00:00 16.2 9 Nordeste 18 Norte 0 -- -- 85
2018-11-13 05:00:00 16.3 6 Nordeste 14 Nordeste 0 -- -- 94
2018-11-13 04:00:00 15.4 3 Norte 5 Nordeste 0 -- -- 97
2018-11-13 03:00:00 16 0 Calma 3 Este 0 -- -- 96
2018-11-13 02:00:00 16.6 0 Calma 5 Norte 0 -- -- 97
2018-11-13 01:00:00 16.5 3 Noroeste 6 Noroeste 0 -- -- 97
2018-11-13 00:00:00 16.6 3 Noroeste 5 Noroeste 0 -- -- 96
2018-11-12 23:00:00 17 0 Calma 4 Noroeste 0 -- -- 96
2018-11-12 22:00:00 17.1 0 Calma 3 Norte 0 -- -- 96
2018-11-12 21:00:00 17.2 2 Noroeste 5 Noroeste 0 -- -- 96
2018-11-12 20:00:00 17.3 2 Sudoeste 8 Sur 0 -- -- 96
2018-11-12 19:00:00 17.7 4 Sur 8 Sur 0 -- -- 95
2018-11-12 18:00:00 17.9 3 Sudoeste 12 Sur 0 -- -- 93
2018-11-12 17:00:00 18.4 5 Sur 17 Sur 0 -- -- 91
2018-11-12 16:00:00 18.7 6 Sur 15 Sur 0 -- -- 89
2018-11-12 15:00:00 19.4 8 Sur 22 Sur 0 -- -- 84
2018-11-12 14:00:00 20 10 Sur 20 Sur 0 -- -- 76
2018-11-12 13:00:00 20.3 9 Sudoeste 19 Sudoeste 0 -- -- 74
2018-11-12 12:00:00 20.9 11 Sudoeste 26 Sudoeste 0 -- -- 70
2018-11-12 11:00:00 20.2 9 Sudoeste 22 Sur 0 -- -- 76
2018-11-12 10:00:00 18.5 10 Sudoeste 20 Sudoeste 0 -- -- 83
2018-11-12 09:00:00 16.5 6 Sudoeste 15 Sudoeste 0 -- -- 91
2018-11-12 08:00:00 15.3 6 Sudoeste 15 Oeste 0 -- -- 95
2018-11-12 07:00:00 15.1 4 Sudoeste 9 Sudoeste 0 -- -- 95
2018-11-12 06:00:00 15.6 3 Sudoeste 12 Sudoeste 0 -- -- 94
2018-11-12 05:00:00 15.8 5 Sudoeste 11 Sudoeste 0 -- -- 93
2018-11-12 04:00:00 15.5 4 Sudoeste 10 Oeste 0 -- -- 92
2018-11-12 03:00:00 15.1 5 Sudoeste 9 Sudoeste 0 -- -- 93
2018-11-12 02:00:00 15.1 5 Oeste 15 Oeste 0 -- -- 92
2018-11-12 01:00:00 15.5 9 Sudoeste 18 Sudoeste 0 -- -- 91
2018-11-12 00:00:00 15.6 7 Sudoeste 23 Sudoeste 0 -- -- 89
2018-11-11 23:00:00 16.1 13 Sudoeste 23 Sudoeste 0 -- -- 89
2018-11-11 22:00:00 15.9 5 Oeste 12 Oeste 0 -- -- 87
2018-11-11 21:00:00 16.3 9 Oeste 21 Oeste 0 -- -- 86
2018-11-11 20:00:00 16.6 10 Sudoeste 20 Oeste 0 -- -- 84
2018-11-11 19:00:00 17.9 10 Sudoeste 27 Oeste 0 -- -- 73
2018-11-11 18:00:00 19 11 Sudoeste 23 Sudoeste 0 -- -- 68
2018-11-11 17:00:00 21.2 16 Sudoeste 33 Sudoeste 0 -- -- 59
2018-11-11 16:00:00 22.5 17 Sudoeste 34 Sudoeste 0 -- -- 55
2018-11-11 15:00:00 24.2 16 Sudoeste 33 Oeste 0 -- -- 51
2018-11-11 14:00:00 23.9 15 Oeste 35 Oeste 0 -- -- 49
2018-11-11 13:00:00 19.8 5 Este 11 Este 0 -- -- 68
2018-11-11 12:00:00 18.2 3 Sudeste 9 Este 0 -- -- 71
2018-11-11 11:00:00 16.3 2 Este 8 Sudeste 0 -- -- 77
2018-11-11 10:00:00 14.5 2 Sur 8 Sudeste 0 -- -- 83
2018-11-11 09:00:00 12.2 2 Noroeste 6 Noroeste 0 -- -- 88
2018-11-11 08:00:00 10.9 2 Norte 11 Noroeste 0 -- -- 93
2018-11-11 07:00:00 10.6 5 Norte 8 Noroeste 0 -- -- 93
2018-11-11 06:00:00 10.9 0 Calma 4 Sur 0 -- -- 92
2018-11-11 05:00:00 11 2 Norte 8 Oeste 0 -- -- 92
2018-11-11 04:00:00 11.1 0 Calma 6 Norte 0 -- -- 92
2018-11-11 03:00:00 11.2 3 Noroeste 10 Noroeste 0 -- -- 92
2018-11-11 02:00:00 11 0 Calma 7 Sur 0 -- -- 92
2018-11-11 01:00:00 11.1 3 Noroeste 8 Noroeste 0 -- -- 91
2018-11-11 00:00:00 12 3 Norte 8 Norte 0 -- -- 90
2018-11-10 23:00:00 12.1 4 Noroeste 10 Sur 0 -- -- 89
2018-11-10 22:00:00 13.1 2 Norte 9 Norte 0 -- -- 86
2018-11-10 21:00:00 13.6 2 Norte 6 Sudeste 0 -- -- 84
2018-11-10 20:00:00 14.2 0 Calma 10 Sur 0 -- -- 82
2018-11-10 19:00:00 14.6 4 Noroeste 11 Oeste 0 -- -- 80
2018-11-10 18:00:00 16.1 4 Norte 13 Nordeste 0 -- -- 73
2018-11-10 17:00:00 17.9 7 Nordeste 17 Nordeste 0 -- -- 66
2018-11-10 16:00:00 19.2 5 Este 13 Este 0 -- -- 62
2018-11-10 15:00:00 18.3 5 Este 11 Nordeste 0 -- -- 65
2018-11-10 14:00:00 17.7 2 Este 9 Este 0 -- -- 66
2018-11-10 13:00:00 17 3 Sudeste 10 Este 0 -- -- 68
2018-11-10 12:00:00 15.3 5 Sudeste 11 Sur 0 -- -- 72
2018-11-10 11:00:00 13.9 7 Sudoeste 15 Sudoeste 0 -- -- 75
2018-11-10 10:00:00 11.3 4 Oeste 7 Oeste 0 -- -- 85
2018-11-10 09:00:00 9.1 3 Norte 12 Norte 0 -- -- 93
2018-11-10 08:00:00 8.6 0 Calma 5 Nordeste 0 -- -- 94
2018-11-10 07:00:00 8 4 Este 7 Este 0 -- -- 94
2018-11-10 06:00:00 7.7 3 Sudeste 10 Norte 0 -- -- 94
2018-11-10 05:00:00 7.5 3 Noroeste 8 Norte 0 -- -- 95
2018-11-10 04:00:00 8 4 Noroeste 6 Noroeste 0 -- -- 93
2018-11-10 03:00:00 8.3 3 Norte 9 Noroeste 0 -- -- 92
2018-11-10 02:00:00 9.2 2 Nordeste 9 Noroeste 0 -- -- 91
2018-11-10 01:00:00 9.3 0 Calma 7 Norte 0 -- -- 90
2018-11-10 00:00:00 9.6 2 Oeste 7 Noroeste 0 -- -- 88
2018-11-09 23:00:00 10.4 0 Calma 8 Este 0 -- -- 86
2018-11-09 22:00:00 10.7 0 Calma 8 Noroeste 0 -- -- 84
2018-11-09 21:00:00 12.3 2 Noroeste 12 Noroeste 0 -- -- 76
2018-11-09 20:00:00 13.9 5 Norte 22 Nordeste 0 -- -- 68
2018-11-09 19:00:00 14.4 10 Norte 32 Nordeste 0 -- -- 65
2018-11-09 18:00:00 15.1 10 Nordeste 27 Este 0 -- -- 64
2018-11-09 17:00:00 16.3 12 Nordeste 24 Nordeste 0 -- -- 57
2018-11-09 16:00:00 16.5 12 Nordeste 32 Nordeste 0 -- -- 58
2018-11-09 15:00:00 16.9 17 Nordeste 41 Nordeste 0 -- -- 57
2018-11-09 14:00:00 17.5 19 Nordeste 42 Nordeste 0 -- -- 57
2018-11-09 13:00:00 17 21 Nordeste 49 Este 0 -- -- 59
2018-11-09 12:00:00 16.2 21 Nordeste 44 Nordeste 0 -- -- 62
2018-11-09 11:00:00 15.4 17 Nordeste 45 Nordeste 0 -- -- 69
2018-11-09 10:00:00 14.2 6 Nordeste 35 Nordeste 0 -- -- 85
2018-11-09 09:00:00 13.5 15 Nordeste 29 Nordeste 0.2 -- -- 90
2018-11-09 08:00:00 13.6 6 Norte 15 Noroeste 0.8 -- -- 96
2018-11-09 07:00:00 14.1 4 Nordeste 27 Sudoeste 10.6 -- -- 96
2018-11-09 06:00:00 13.8 4 Norte 10 Sudoeste 5.4 -- -- 97
2018-11-09 05:00:00 13.6 5 Norte 9 Este 3.4 -- -- 94
2018-11-09 04:00:00 13.7 4 Este 7 Sudeste 0 -- -- 91
2018-11-09 03:00:00 13.7 0 Calma 9 Sudeste 0 -- -- 91
2018-11-09 02:00:00 13.5 0 Calma 6 Noroeste 0 -- -- 91
2018-11-09 01:00:00 13.4 3 Noroeste 9 Oeste 0 -- -- 90
2018-11-09 00:00:00 14 3 Oeste 11 Oeste 0 -- -- 87
2018-11-08 23:00:00 14.5 5 Oeste 15 Oeste 0 -- -- 85
2018-11-08 22:00:00 14.9 6 Oeste 12 Sudoeste 0 -- -- 84
2018-11-08 21:00:00 15.1 4 Oeste 18 Sudoeste 0 -- -- 84
2018-11-08 20:00:00 14.9 4 Sudoeste 10 Sudoeste 0 -- -- 86
2018-11-08 19:00:00 15.1 5 Sur 9 Sudoeste 0 -- -- 86
2018-11-08 18:00:00 16.1 5 Sudoeste 22 Oeste 0 -- -- 81
2018-11-08 17:00:00 17.4 12 Sudoeste 27 Sudoeste 0 -- -- 73
2018-11-08 16:00:00 17.8 13 Oeste 30 Sudoeste 0 -- -- 69
2018-11-08 15:00:00 17.9 17 Oeste 36 Oeste 0 -- -- 64
2018-11-08 14:00:00 19.2 19 Sudoeste 39 Oeste 0 -- -- 55
2018-11-08 13:00:00 19.2 15 Oeste 29 Sudoeste 0 -- -- 51
2018-11-08 12:00:00 18.3 11 Oeste 23 Oeste 0 -- -- 51
2018-11-08 11:00:00 17.4 9 Sudoeste 16 Oeste 0 -- -- 54
2018-11-08 10:00:00 15 4 Sur 7 Sudoeste 0 -- -- 74
2018-11-08 09:00:00 13.7 3 Sur 8 Sudeste 0 -- -- 75
2018-11-08 08:00:00 11.4 5 Noroeste 10 Noroeste 0 -- -- 86
2018-11-08 07:00:00 11.9 3 Norte 11 Noroeste 0 -- -- 84
2018-11-08 06:00:00 12 6 Noroeste 12 Noroeste 0 -- -- 84
2018-11-08 05:00:00 12.3 4 Noroeste 10 Noroeste 0 -- -- 81
2018-11-08 04:00:00 13.2 5 Noroeste 18 Nordeste 0 -- -- 74
2018-11-08 03:00:00 14.7 7 Nordeste 19 Nordeste 0 -- -- 55
2018-11-08 02:00:00 14.8 8 Nordeste 27 Nordeste 0 -- -- 58
2018-11-08 01:00:00 14.7 12 Nordeste 27 Norte 0 -- -- 59
2018-11-08 00:00:00 14.5 15 Nordeste 33 Nordeste 0 -- -- 61
2018-11-07 23:00:00 14.5 15 Nordeste 35 Nordeste 0 -- -- 63
2018-11-07 22:00:00 15.7 16 Nordeste 32 Nordeste 0 -- -- 67
2018-11-07 21:00:00 16.6 12 Nordeste 30 Nordeste 0 -- -- 62
2018-11-07 20:00:00 16.3 11 Nordeste 22 Nordeste 0 -- -- 62
2018-11-07 19:00:00 15.1 0 Calma 12 Nordeste 0 -- -- 73
2018-11-07 18:00:00 16.5 5 Nordeste 12 Este 0 -- -- 71
2018-11-07 17:00:00 18.4 4 Norte 11 Este 0 -- -- 62
2018-11-07 16:00:00 19.5 5 Sudoeste 13 Sudoeste 0 -- -- 55
2018-11-07 15:00:00 19.8 6 Oeste 29 Oeste 0 -- -- 51
2018-11-07 14:00:00 20 14 Sudoeste 34 Oeste 0 -- -- 48
2018-11-07 13:00:00 20 18 Sudoeste 40 Oeste 0 -- -- 49
2018-11-07 12:00:00 18.9 9 Oeste 28 Oeste 0 -- -- 56
2018-11-07 11:00:00 14.7 5 Sudoeste 12 Sur 0 -- -- 67
2018-11-07 10:00:00 10.3 3 Sudeste 5 Sur 0 -- -- 84
2018-11-07 09:00:00 9 0 Calma 6 Noroeste 0 -- -- 86
2018-11-07 08:00:00 8 4 Noroeste 8 Noroeste 0 -- -- 90
2018-11-07 07:00:00 7.7 0 Calma 8 Noroeste 0 -- -- 92
2018-11-07 06:00:00 7.1 2 Noroeste 7 Noroeste 0 -- -- 93
2018-11-07 05:00:00 7.2 3 Noroeste 10 Norte 0 -- -- 94
2018-11-07 04:00:00 7.2 3 Noroeste 7 Sudoeste 0 -- -- 94
2018-11-07 03:00:00 7.6 2 Norte 8 Sudeste 0 -- -- 93
2018-11-07 02:00:00 8.1 0 Calma 6 Nordeste 0 -- -- 90
2018-11-07 01:00:00 8.3 0 Calma 10 Norte 0 -- -- 91
2018-11-07 00:00:00 9 0 Calma 8 Sudoeste 0 -- -- 88
2018-11-06 23:00:00 9.2 0 Calma 7 Sudoeste 0 -- -- 90
2018-11-06 22:00:00 10.9 3 Norte 6 Norte 0 -- -- 80
2018-11-06 21:00:00 11.7 3 Noroeste 8 Noroeste 0 -- -- 78
2018-11-06 20:00:00 12.6 4 Norte 6 Noroeste 0 -- -- 75
2018-11-06 19:00:00 13.2 5 Noroeste 11 Noroeste 0 -- -- 75
2018-11-06 18:00:00 15.1 3 Oeste 10 Oeste 0 -- -- 65
2018-11-06 17:00:00 17.3 5 Oeste 10 Oeste 0 -- -- 53
2018-11-06 16:00:00 18.4 7 Oeste 16 Oeste 0 -- -- 49
2018-11-06 15:00:00 18.5 6 Oeste 19 Sudoeste 0 -- -- 49
2018-11-06 14:00:00 18.1 8 Sudoeste 23 Sudoeste 0 -- -- 51
2018-11-06 13:00:00 17.4 11 Oeste 26 Oeste 0 -- -- 54
2018-11-06 12:00:00 17.1 10 Oeste 23 Oeste 0 -- -- 57
2018-11-06 11:00:00 15.5 6 Oeste 26 Sudoeste 0 -- -- 65
2018-11-06 10:00:00 14.1 8 Oeste 18 Oeste 0 -- -- 71
2018-11-06 09:00:00 11.6 5 Oeste 13 Oeste 0 -- -- 87
2018-11-06 08:00:00 10.3 4 Noroeste 9 Oeste 0 -- -- 93
2018-11-06 07:00:00 10.7 4 Oeste 8 Oeste 0 -- -- 96
2018-11-06 06:00:00 11.3 4 Oeste 6 Oeste 0 -- -- 96
2018-11-06 05:00:00 11.7 3 Sudoeste 9 Sur 0 -- -- 95
2018-11-06 04:00:00 12.1 6 Sur 13 Sur 0 -- -- 94
2018-11-06 03:00:00 12.9 8 Sudoeste 27 Sudoeste 2 -- -- 91
2018-11-06 02:00:00 13.7 8 Sudoeste 19 Sudoeste 0 -- -- 89
2018-11-06 01:00:00 13.6 9 Sudoeste 23 Oeste 0.2 -- -- 90
2018-11-06 00:00:00 14.3 14 Oeste 30 Oeste 0 -- -- 83
2018-11-05 23:00:00 14.7 15 Oeste 41 Sudoeste 2.6 -- -- 86
2018-11-05 22:00:00 17 14 Sur 39 Sur 0.6 -- -- 84
2018-11-05 21:00:00 17.4 16 Sur 36 Sur 0 -- -- 78
2018-11-05 20:00:00 15.5 3 Sur 9 Sur 0 -- -- 84
2018-11-05 19:00:00 15.4 4 Sudeste 9 Sudeste 0 -- -- 83
2018-11-05 18:00:00 16 6 Sudoeste 22 Sudoeste 0 -- -- 79
2018-11-05 17:00:00 17.2 11 Sudoeste 24 Sur 0 -- -- 73
2018-11-05 16:00:00 18.1 11 Sudoeste 24 Sur 0 -- -- 69
2018-11-05 15:00:00 18.2 12 Sudoeste 23 Sur 0 -- -- 69
2018-11-05 14:00:00 18.8 11 Oeste 22 Sudoeste 0 -- -- 66
2018-11-05 13:00:00 19.5 12 Sudoeste 27 Oeste 0 -- -- 64
2018-11-05 12:00:00 20.1 14 Oeste 28 Sudoeste 0 -- -- 57
2018-11-05 11:00:00 18.1 8 Sudoeste 22 Sudoeste 0 -- -- 74
2018-11-05 10:00:00 15.6 3 Sudoeste 6 Oeste 0 -- -- 90
2018-11-05 09:00:00 14.7 3 Oeste 5 Sur 0 -- -- 93
2018-11-05 08:00:00 14.3 0 Calma 5 Sudeste 0 -- -- 93
2018-11-05 07:00:00 14.5 0 Calma 7 Sudoeste 0 -- -- 91
2018-11-05 06:00:00 14.5 3 Oeste 9 Noroeste 0 -- -- 92
2018-11-05 05:00:00 13.9 0 Calma 5 Sudoeste 0 -- -- 94
2018-11-05 04:00:00 13.9 2 Oeste 5 Sur 0 -- -- 93
2018-11-05 03:00:00 14.4 2 Oeste 7 Noroeste 0 -- -- 92
2018-11-05 02:00:00 15 3 Noroeste 8 Oeste 0 -- -- 90
2018-11-05 01:00:00 15 3 Noroeste 6 Oeste 0 -- -- 89
2018-11-05 00:00:00 15 4 Noroeste 6 Noroeste 0 -- -- 88
2018-11-04 23:00:00 15.6 3 Norte 6 Noroeste 0 -- -- 87
2018-11-04 22:00:00 16.5 0 Calma 6 Nordeste 0 -- -- 83
2018-11-04 21:00:00 16.8 3 Este 8 Nordeste 0 -- -- 79
2018-11-04 20:00:00 17.2 3 Este 7 Nordeste 0 -- -- 77
2018-11-04 19:00:00 17 4 Nordeste 18 Este 0 -- -- 77
2018-11-04 18:00:00 17.5 0 Calma 7 Norte 0 -- -- 79
2018-11-04 17:00:00 17.5 0 Calma 8 Norte 0 -- -- 77
2018-11-04 16:00:00 18.2 2 Este 14 Sudeste 0 -- -- 63
2018-11-04 15:00:00 20.2 8 Sudeste 16 Este 0 -- -- 59
2018-11-04 14:00:00 22.5 6 Sudeste 14 Sudeste 0 -- -- 55
2018-11-04 13:00:00 21.5 6 Sudeste 13 Sudeste 0 -- -- 55
2018-11-04 12:00:00 20.4 4 Sudeste 10 Sur 0 -- -- 62
2018-11-04 11:00:00 18.9 4 Sudoeste 8 Oeste 0 -- -- 69
2018-11-04 10:00:00 17.1 0 Calma 10 Noroeste 0 -- -- 72
2018-11-04 09:00:00 13 4 Noroeste 8 Noroeste 0 -- -- 83
2018-11-04 08:00:00 10.7 0 Calma 4 Noroeste 0 -- -- 89
2018-11-04 07:00:00 10.8 2 Noroeste 10 Noroeste 0 -- -- 87
2018-11-04 06:00:00 11.4 0 Calma 8 Noroeste 0 -- -- 84
2018-11-04 05:00:00 11.8 4 Noroeste 6 Noroeste 0 -- -- 83
2018-11-04 04:00:00 12.1 0 Calma 6 Noroeste 0 -- -- 83
2018-11-04 03:00:00 11.8 3 Noroeste 8 Noroeste 0 -- -- 84
2018-11-04 02:00:00 12.6 0 Calma 12 Norte 0 -- -- 79
2018-11-04 01:00:00 14.2 5 Noroeste 16 Nordeste 0 -- -- 67
2018-11-04 00:00:00 15.5 5 Norte 18 Norte 0 -- -- 56
2018-11-03 23:00:00 15.1 6 Nordeste 22 Norte 0 -- -- 58
2018-11-03 22:00:00 15 8 Norte 21 Norte 0 -- -- 57
2018-11-03 21:00:00 14.5 9 Norte 25 Norte 0 -- -- 59
2018-11-03 20:00:00 15.5 12 Nordeste 28 Nordeste 0 -- -- 50
2018-11-03 19:00:00 14.8 10 Nordeste 26 Nordeste 0 -- -- 53
2018-11-03 18:00:00 13.9 10 Nordeste 30 Nordeste 0 -- -- 57
2018-11-03 17:00:00 15.3 12 Nordeste 29 Nordeste 0 -- -- 51
2018-11-03 16:00:00 16.5 13 Nordeste 31 Nordeste 0 -- -- 45
2018-11-03 15:00:00 17.1 14 Nordeste 31 Nordeste 0 -- -- 42
2018-11-03 14:00:00 18.2 14 Nordeste 34 Nordeste 0 -- -- 40
2018-11-03 13:00:00 17.8 16 Nordeste 33 Nordeste 0 -- -- 39
2018-11-03 12:00:00 16.5 17 Nordeste 40 Nordeste 0 -- -- 43
2018-11-03 11:00:00 15.6 17 Nordeste 45 Nordeste 0 -- -- 45
2018-11-03 10:00:00 14.9 15 Nordeste 38 Norte 0 -- -- 47
2018-11-03 09:00:00 14.5 12 Nordeste 32 Nordeste 0 -- -- 43
2018-11-03 08:00:00 11 7 Norte 19 Nordeste 0 -- -- 51
2018-11-03 07:00:00 11.7 7 Norte 32 Norte 0 -- -- 52
2018-11-03 06:00:00 13.4 11 Norte 46 Nordeste 0 -- -- 47
2018-11-03 05:00:00 13.6 16 Nordeste 35 Nordeste 0 -- -- 46
2018-11-03 04:00:00 13.3 14 Norte 44 Nordeste 0 -- -- 51
2018-11-03 03:00:00 14 14 Nordeste 40 Norte 0 -- -- 49
2018-11-03 02:00:00 14 14 Nordeste 34 Nordeste 0 -- -- 51
2018-11-03 01:00:00 13.8 13 Nordeste 39 Norte 0 -- -- 55
2018-11-03 00:00:00 13.3 10 Nordeste 42 Nordeste 0 -- -- 63
2018-11-02 23:00:00 13.7 22 Nordeste 50 Nordeste 0 -- -- 63
2018-11-02 22:00:00 14 19 Nordeste 46 Nordeste 0 -- -- 63
2018-11-02 21:00:00 13.7 12 Nordeste 33 Nordeste 0 -- -- 67
2018-11-02 20:00:00 13.9 19 Nordeste 46 Nordeste 0 -- -- 67
2018-11-02 19:00:00 14.2 24 Nordeste 47 Nordeste 0 -- -- 68
2018-11-02 18:00:00 14.8 18 Nordeste 52 Nordeste 0 -- -- 64
2018-11-02 17:00:00 15.9 17 Nordeste 51 Nordeste 0 -- -- 58
2018-11-02 16:00:00 17.4 13 Nordeste 45 Norte 0 -- -- 54
2018-11-02 15:00:00 17.9 12 Nordeste 39 Nordeste 0 -- -- 51
2018-11-02 14:00:00 18 13 Este 41 Este 0 -- -- 50
2018-11-02 13:00:00 17 12 Nordeste 34 Nordeste 0 -- -- 53
2018-11-02 12:00:00 16 8 Nordeste 24 Norte 0 -- -- 56
2018-11-02 11:00:00 15 9 Nordeste 25 Norte 0 -- -- 64
2018-11-02 10:00:00 14.7 6 Nordeste 19 Nordeste 0 -- -- 68
2018-11-02 09:00:00 12 9 Nordeste 19 Nordeste 0 -- -- 74
2018-11-02 08:00:00 9.6 8 Nordeste 15 Nordeste 0 -- -- 88
2018-11-02 07:00:00 8.1 0 Calma 8 Oeste 0 -- -- 92
2018-11-02 06:00:00 8.2 4 Noroeste 9 Noroeste 0 -- -- 92
2018-11-02 05:00:00 8.1 0 Calma 10 Noroeste 0 -- -- 92
2018-11-02 04:00:00 8.1 5 Noroeste 10 Noroeste 0 -- -- 92
2018-11-02 03:00:00 8 5 Noroeste 8 Noroeste 0 -- -- 93
2018-11-02 02:00:00 8 3 Sudoeste 6 Noroeste 0 -- -- 93
2018-11-02 01:00:00 8.3 3 Noroeste 7 Noroeste 0 -- -- 92
2018-11-02 00:00:00 8.8 2 Norte 6 Noroeste 0 -- -- 92
2018-11-01 23:00:00 9.5 0 Calma 6 Norte 0 -- -- 90
2018-11-01 22:00:00 10.1 3 Noroeste 6 Noroeste 0 -- -- 90
2018-11-01 21:00:00 10.9 3 Noroeste 6 Noroeste 0 -- -- 87
2018-11-01 20:00:00 11.9 4 Noroeste 5 Noroeste 0 -- -- 83
2018-11-01 19:00:00 13.3 0 Calma 5 Sudeste 0 -- -- 79
2018-11-01 18:00:00 14.7 3 Este 8 Nordeste 0 -- -- 72
2018-11-01 17:00:00 16.2 4 Nordeste 10 Sudeste 0 -- -- 65
2018-11-01 16:00:00 16.8 5 Sudeste 14 Este 0 -- -- 63
2018-11-01 15:00:00 17.5 5 Sudeste 14 Sudeste 0.2 -- -- 61
2018-11-01 14:00:00 17 6 Sur 14 Sudeste 0 -- -- 65
2018-11-01 13:00:00 17.3 5 Sur 13 Sur 0 -- -- 60
2018-11-01 12:00:00 16.5 4 Sudoeste 8 Sudoeste 0 -- -- 65
2018-11-01 11:00:00 14.7 3 Oeste 5 Noroeste 0 -- -- 70
2018-11-01 10:00:00 13.2 2 Sudoeste 5 Noroeste 0 -- -- 86
2018-11-01 09:00:00 9.8 0 Calma 7 Noroeste 0 -- -- 97
2018-11-01 08:00:00 8.9 3 Noroeste 5 Noroeste 0 -- -- 98
2018-11-01 07:00:00 8.9 2 Nordeste 6 Este 0.2 -- -- 97
2018-11-01 06:00:00 8.9 2 Sudoeste 8 Oeste 0 -- -- 97
2018-11-01 05:00:00 8.8 0 Calma 5 Sudoeste 0.2 -- -- 97
2018-11-01 04:00:00 8.7 3 Norte 7 Nordeste 0 -- -- 97
2018-11-01 03:00:00 8.4 3 Norte 8 Norte 0 -- -- 96
2018-11-01 02:00:00 8.6 2 Noroeste 6 Noroeste 0 -- -- 95
2018-11-01 01:00:00 9.4 4 Sudoeste 10 Sudoeste 0.2 -- -- 96
2018-11-01 00:00:00 9.8 4 Sudoeste 8 Sudoeste 0.4 -- -- 95
2018-10-31 23:00:00 10.2 6 Sur 11 Sur 0.2 -- -- 94
2018-10-31 22:00:00 10.8 2 Norte 18 Sudoeste 1.2 -- -- 92
2018-10-31 21:00:00 11.1 0 Calma 6 Norte 0 -- -- 97
2018-10-31 20:00:00 11.4 0 Calma 8 Noroeste 0.2 -- -- 96
2018-10-31 19:00:00 11.7 0 Calma 11 Noroeste 0.2 -- -- 96
2018-10-31 18:00:00 11.7 3 Noroeste 9 Noroeste 0.2 -- -- 95
2018-10-31 17:00:00 11.7 2 Sudeste 13 Sur 0.4 -- -- 93
2018-10-31 16:00:00 11.8 6 Sudoeste 20 Sudoeste 1.6 -- -- 92
2018-10-31 15:00:00 13 9 Sudoeste 45 Sudoeste 1.2 -- -- 87
2018-10-31 14:00:00 15.7 5 Sudoeste 14 Sudoeste 0 -- -- 84
2018-10-31 13:00:00 14.8 3 Sudoeste 13 Sudeste 0.2 -- -- 89
2018-10-31 12:00:00 13.7 4 Sudoeste 8 Sudoeste 0.2 -- -- 91
2018-10-31 11:00:00 12.5 3 Sur 6 Oeste 1 -- -- 97
2018-10-31 10:00:00 11.7 4 Este 9 Este 0.2 -- -- 98
2018-10-31 09:00:00 11 0 Calma 7 Sudoeste 1.4 -- -- 98
2018-10-31 08:00:00 10.9 4 Norte 10 Norte 2.6 -- -- 98
2018-10-31 07:00:00 10.7 2 Sudeste 8 Nordeste 4.4 -- -- 97
2018-10-31 06:00:00 10.4 2 Noroeste 20 Oeste 3.8 -- -- 96
2018-10-31 05:00:00 10.2 6 Este 13 Este 3.8 -- -- 94
2018-10-31 04:00:00 10.6 5 Sudoeste 12 Sur 2.6 -- -- 90
2018-10-31 03:00:00 10.9 0 Calma 5 Norte 0 -- -- 80
2018-10-31 02:00:00 11.1 0 Calma 6 Sudeste 0 -- -- 85
2018-10-31 01:00:00 11.4 0 Calma 5 Noroeste 0 -- -- 82
2018-10-31 00:00:00 11.7 2 Noroeste 8 Noroeste 0 -- -- 76
2018-10-30 23:00:00 11.8 2 Oeste 8 Oeste 0 -- -- 75
2018-10-30 22:00:00 11.6 3 Oeste 12 Oeste 0 -- -- 76
2018-10-30 21:00:00 12.3 6 Oeste 15 Sudoeste 0 -- -- 70
2018-10-30 20:00:00 12.6 6 Sudoeste 17 Sudoeste 0 -- -- 69
2018-10-30 19:00:00 12.9 8 Sudoeste 21 Sudoeste 0 -- -- 66
2018-10-30 18:00:00 14.3 12 Sudoeste 22 Oeste 0 -- -- 55
2018-10-30 17:00:00 15.3 5 Sudoeste 12 Oeste 0 -- -- 51
2018-10-30 16:00:00 15.7 4 Oeste 19 Sudoeste 0 -- -- 49
2018-10-30 15:00:00 16.3 8 Oeste 36 Oeste 0 -- -- 43
2018-10-30 14:00:00 16.4 15 Oeste 37 Oeste 0 -- -- 40
2018-10-30 13:00:00 15.3 13 Oeste 25 Oeste 0 -- -- 47
2018-10-30 12:00:00 14.2 12 Oeste 21 Sudoeste 0 -- -- 50
2018-10-30 11:00:00 13.2 6 Sudoeste 11 Oeste 0 -- -- 59
2018-10-30 10:00:00 11.3 3 Sudoeste 6 Sudoeste 0 -- -- 74
2018-10-30 09:00:00 9 0 Calma 6 Oeste 0 -- -- 81
2018-10-30 08:00:00 7 4 Noroeste 8 Noroeste 0 -- -- 87
2018-10-30 07:00:00 6.1 4 Noroeste 12 Noroeste 0 -- -- 89
2018-10-30 06:00:00 6.1 2 Norte 10 Noroeste 0 -- -- 87
2018-10-30 05:00:00 5.9 5 Noroeste 9 Oeste 0 -- -- 89
2018-10-30 04:00:00 5.9 0 Calma 8 Noroeste 0 -- -- 89
2018-10-30 03:00:00 6.5 4 Noroeste 8 Noroeste 0 -- -- 87
2018-10-30 02:00:00 7.7 3 Noroeste 7 Nordeste 0 -- -- 84
2018-10-30 01:00:00 8 0 Calma 8 Noroeste 0 -- -- 83
2018-10-30 00:00:00 8.1 4 Noroeste 10 Oeste 0 -- -- 80
2018-10-29 23:00:00 8.5 4 Oeste 10 Oeste 0 -- -- 83
2018-10-29 22:00:00 8.8 7 Oeste 13 Oeste 0 -- -- 84
2018-10-29 21:00:00 9.1 5 Noroeste 13 Noroeste 0 -- -- 80
2018-10-29 20:00:00 9.3 2 Este 12 Sudeste 0 -- -- 66
2018-10-29 19:00:00 9.6 4 Este 10 Este 0 -- -- 76
2018-10-29 18:00:00 9.6 0 Calma 6 Sudoeste 0 -- -- 75
2018-10-29 17:00:00 10 4 Sudoeste 11 Oeste 0 -- -- 73
2018-10-29 16:00:00 10.1 6 Sudoeste 15 Oeste 0 -- -- 69
2018-10-29 15:00:00 10.3 5 Noroeste 21 Nordeste 0 -- -- 62
2018-10-29 14:00:00 9.8 8 Norte 28 Norte 0 -- -- 59
2018-10-29 13:00:00 9.6 15 Norte 41 Nordeste 0 -- -- 58
2018-10-29 12:00:00 9.8 11 Nordeste 36 Norte 0 -- -- 57
2018-10-29 11:00:00 9.9 12 Norte 37 Nordeste 0 -- -- 56
2018-10-29 10:00:00 9.7 14 Nordeste 33 Nordeste 0 -- -- 54
2018-10-29 09:00:00 9.2 10 Norte 31 Norte 0 -- -- 54
2018-10-29 08:00:00 9.1 12 Nordeste 28 Nordeste 0 -- -- 55
2018-10-29 07:00:00 8.7 12 Norte 25 Norte 0 -- -- 57
2018-10-29 06:00:00 8.4 12 Norte 37 Nordeste 0 -- -- 58
2018-10-29 05:00:00 8.8 12 Nordeste 24 Norte 0 -- -- 55
2018-10-29 04:00:00 8.2 12 Nordeste 32 Nordeste 0 -- -- 61
2018-10-29 03:00:00 8.1 9 Nordeste 23 Este 0 -- -- 65
2018-10-29 02:00:00 8.4 12 Nordeste 21 Nordeste 0 -- -- 63
2018-10-29 01:00:00 8 6 Nordeste 19 Nordeste 0 -- -- 69
2018-10-29 00:00:00 7.9 9 Nordeste 17 Nordeste 0 -- -- 68
2018-10-28 23:00:00 7.8 7 Nordeste 13 Nordeste 0 -- -- 71
2018-10-28 22:00:00 7.7 5 Norte 17 Nordeste 0 -- -- 71
2018-10-28 21:00:00 8.2 4 Norte 16 Nordeste 0 -- -- 69
2018-10-28 20:00:00 8.2 5 Norte 14 Norte 0 -- -- 71
2018-10-28 19:00:00 8.5 7 Norte 18 Nordeste 0 -- -- 69
2018-10-28 18:00:00 8.7 8 Norte 23 Nordeste 0 -- -- 69
2018-10-28 17:00:00 10.5 8 Norte 17 Norte 0 -- -- 69
2018-10-28 16:00:00 9.5 5 Norte 15 Nordeste 0 -- -- 80
2018-10-28 15:00:00 9.3 5 Norte 22 Norte 0 -- -- 84
2018-10-28 14:00:00 8.2 5 Norte 19 Nordeste 0.6 -- -- 89
2018-10-28 13:00:00 8 5 Norte 15 Norte 4.2 -- -- 86
2018-10-28 12:00:00 9.2 3 Noroeste 8 Oeste 2 -- -- 87
2018-10-28 11:00:00 9.6 4 Sudoeste 8 Oeste 0.2 -- -- 86
2018-10-28 10:00:00 9.7 3 Noroeste 9 Nordeste 0 -- -- 80
2018-10-28 09:00:00 10.1 6 Norte 37 Nordeste 0 -- -- 55
2018-10-28 08:00:00 10.4 15 Nordeste 36 Nordeste 0 -- -- 51
2018-10-28 07:00:00 9.7 14 Nordeste 35 Nordeste 0 -- -- 54
2018-10-28 06:00:00 10.3 20 Nordeste 45 Nordeste 0 -- -- 49
2018-10-28 05:00:00 10.3 14 Nordeste 39 Norte 0 -- -- 51
2018-10-28 04:00:00 10.2 11 Nordeste 36 Nordeste 0 -- -- 53
2018-10-28 03:00:00 10.4 15 Nordeste 39 Nordeste 0 -- -- 53
2018-10-28 02:00:00 10.6 8 Norte 32 Nordeste 0 -- -- 52
2018-10-28 01:00:00 10 10 Nordeste 39 Nordeste 0 -- -- 59
2018-10-28 00:00:00 10.1 18 Nordeste 41 Nordeste 0 -- -- 59
2018-10-27 23:00:00 10.6 15 Nordeste 41 Nordeste 0 -- -- 57
2018-10-27 22:00:00 11 14 Nordeste 49 Norte 0 -- -- 54
2018-10-27 21:00:00 11.1 18 Nordeste 50 Nordeste 0 -- -- 57
2018-10-27 20:00:00 11 23 Nordeste 49 Nordeste 0 -- -- 60
2018-10-27 19:00:00 10.9 17 Nordeste 46 Nordeste 0 -- -- 63
2018-10-27 18:00:00 11.2 18 Nordeste 41 Norte 0 -- -- 66
2018-10-27 17:00:00 11.5 13 Nordeste 36 Nordeste 0 -- -- 71
2018-10-27 16:00:00 11.6 9 Nordeste 43 Nordeste 0 -- -- 77
2018-10-27 15:00:00 11.1 6 Nordeste 19 Este 1.8 -- -- 81
2018-10-27 14:00:00 10.8 6 Nordeste 29 Nordeste 2 -- -- 85
2018-10-27 13:00:00 10.3 17 Nordeste 35 Norte 4.2 -- -- 90
2018-10-27 12:00:00 10.7 14 Nordeste 33 Nordeste 1.8 -- -- 88
2018-10-27 11:00:00 11 16 Nordeste 39 Nordeste 1.6 -- -- 86
2018-10-27 10:00:00 11.4 20 Nordeste 44 Nordeste 0.4 -- -- 83
2018-10-27 09:00:00 12.5 19 Nordeste 39 Nordeste 0.2 -- -- 77
2018-10-27 08:00:00 13.5 10 Nordeste 30 Nordeste 1.6 -- -- 83
2018-10-27 07:00:00 14.4 3 Sudeste 18 Norte 0.4 -- -- 89
2018-10-27 06:00:00 14.9 7 Nordeste 17 Nordeste 0.2 -- -- 85
2018-10-27 05:00:00 14.9 8 Nordeste 13 Nordeste 0 -- -- 89
2018-10-27 04:00:00 14.8 4 Nordeste 18 Nordeste 0 -- -- 94
2018-10-27 03:00:00 14.6 11 Nordeste 23 Nordeste 1.6 -- -- 92
2018-10-27 02:00:00 16.2 5 Norte 13 Norte 0 -- -- 87
2018-10-27 01:00:00 16.4 0 Calma 8 Norte 0 -- -- 89
2018-10-27 00:00:00 16.3 3 Norte 8 Nordeste 0 -- -- 90
2018-10-26 23:00:00 16.2 2 Sudeste 8 Nordeste 0 -- -- 92
2018-10-26 22:00:00 16.5 0 Calma 6 Noroeste 0 -- -- 89
2018-10-26 21:00:00 17.1 0 Calma 5 Noroeste 0 -- -- 88
2018-10-26 20:00:00 17.5 0 Calma 6 Sur 0 -- -- 87
2018-10-26 19:00:00 18.1 4 Sur 9 Sur 0 -- -- 85
2018-10-26 18:00:00 19 4 Sur 10 Sudoeste 0 -- -- 79
2018-10-26 17:00:00 19.8 7 Sur 13 Sudoeste 0 -- -- 76
2018-10-26 16:00:00 20 5 Sur 14 Sudeste 0 -- -- 75
2018-10-26 15:00:00 20.4 4 Sur 12 Sudeste 0 -- -- 74
2018-10-26 14:00:00 20.3 4 Este 9 Sur 0 -- -- 73
2018-10-26 13:00:00 19.7 3 Sudoeste 8 Sudeste 0 -- -- 77
2018-10-26 12:00:00 18.9 3 Sudoeste 6 Sur 0 -- -- 79
2018-10-26 11:00:00 17.9 3 Sudoeste 6 Oeste 0 -- -- 81
2018-10-26 10:00:00 15.6 2 Sudoeste 5 Norte 0 -- -- 86
2018-10-26 09:00:00 12.9 3 Noroeste 9 Noroeste 0 -- -- 93
2018-10-26 08:00:00 12.4 4 Noroeste 8 Noroeste 0 -- -- 93
2018-10-26 07:00:00 12.5 0 Calma 4 Noroeste 0 -- -- 92
2018-10-26 06:00:00 13.1 0 Calma 6 Noroeste 0 -- -- 90
2018-10-26 05:00:00 13.3 3 Noroeste 4 Noroeste 0 -- -- 90
2018-10-26 04:00:00 13.3 0 Calma 6 Noroeste 0 -- -- 90
2018-10-26 03:00:00 13.7 2 Sudoeste 5 Sur 0 -- -- 90
2018-10-26 02:00:00 14.4 0 Calma 8 Oeste 0 -- -- 89
2018-10-26 01:00:00 14.9 3 Noroeste 9 Oeste 0 -- -- 88
2018-10-26 00:00:00 15.9 4 Noroeste 8 Noroeste 0 -- -- 87
2018-10-25 23:00:00 17.3 4 Noroeste 8 Nordeste 0 -- -- 83
2018-10-25 22:00:00 17.8 4 Noroeste 10 Nordeste 0 -- -- 82
2018-10-25 21:00:00 19 3 Este 8 Este 0 -- -- 80
2018-10-25 20:00:00 20.2 0 Calma 8 Noroeste 0 -- -- 75
2018-10-25 19:00:00 21.8 3 Oeste 14 Oeste 0 -- -- 68
2018-10-25 18:00:00 24.4 4 Oeste 18 Noroeste 0 -- -- 57
2018-10-25 17:00:00 24.8 6 Sudeste 15 Sudeste 0 -- -- 57
2018-10-25 16:00:00 25.5 8 Sudeste 19 Sur 0 -- -- 46
2018-10-25 15:00:00 26.3 9 Sur 16 Sur 0 -- -- 41
2018-10-25 14:00:00 25.8 6 Sudoeste 11 Sudoeste 0 -- -- 43
2018-10-25 13:00:00 24.7 6 Sur 10 Sur 0 -- -- 44
2018-10-25 12:00:00 22.9 5 Sudeste 9 Sudoeste 0 -- -- 49
2018-10-25 11:00:00 20.7 3 Sur 7 Oeste 0 -- -- 52
2018-10-25 10:00:00 17.4 0 Calma 8 Sudoeste 0 -- -- 62
2018-10-25 09:00:00 14.3 0 Calma 9 Oeste 0 -- -- 68
2018-10-25 08:00:00 15.8 4 Noroeste 12 Norte 0 -- -- 61
2018-10-25 07:00:00 14.2 5 Noroeste 12 Noroeste 0 -- -- 68
2018-10-25 06:00:00 13.9 5 Noroeste 15 Noroeste 0 -- -- 69
2018-10-25 05:00:00 14.8 6 Noroeste 13 Noroeste 0 -- -- 67
2018-10-25 04:00:00 16.1 5 Noroeste 13 Noroeste 0 -- -- 63
2018-10-25 03:00:00 16.3 8 Noroeste 16 Noroeste 0 -- -- 65
2018-10-25 02:00:00 17.2 3 Sudoeste 17 Oeste 0 -- -- 62
2018-10-25 01:00:00 19.5 7 Noroeste 28 Nordeste 0 -- -- 54
2018-10-25 00:00:00 23.6 12 Nordeste 22 Nordeste 0 -- -- 39
2018-10-24 23:00:00 23.6 9 Nordeste 23 Nordeste 0 -- -- 36
2018-10-24 22:00:00 24 5 Noroeste 26 Nordeste 0 -- -- 42
2018-10-24 21:00:00 24.9 11 Nordeste 27 Este 0 -- -- 33
2018-10-24 20:00:00 25.9 11 Nordeste 27 Nordeste 0 -- -- 32
2018-10-24 19:00:00 26.8 10 Nordeste 35 Nordeste 0 -- -- 30
2018-10-24 18:00:00 27.9 17 Nordeste 45 Nordeste 0 -- -- 30
2018-10-24 17:00:00 28.9 15 Nordeste 46 Nordeste 0 -- -- 30
2018-10-24 16:00:00 29.1 23 Nordeste 54 Nordeste 0 -- -- 29
2018-10-24 15:00:00 29.1 17 Nordeste 56 Nordeste 0 -- -- 30
2018-10-24 14:00:00 29 19 Nordeste 51 Nordeste 0 -- -- 28
2018-10-24 13:00:00 27.7 22 Nordeste 53 Nordeste 0 -- -- 25
2018-10-24 12:00:00 26.8 13 Nordeste 44 Este 0 -- -- 24
2018-10-24 11:00:00 25 13 Nordeste 39 Nordeste 0 -- -- 25
2018-10-24 10:00:00 23.8 18 Nordeste 41 Norte 0 -- -- 25
2018-10-24 09:00:00 14.4 4 Oeste 31 Este 0 -- -- 56
2018-10-24 08:00:00 14.2 10 Noroeste 22 Norte 0 -- -- 51
2018-10-24 07:00:00 12.9 8 Oeste 21 Oeste 0 -- -- 62
2018-10-24 06:00:00 14.9 6 Oeste 28 Nordeste 0 -- -- 55
2018-10-24 05:00:00 21.2 8 Norte 24 Nordeste 0 -- -- 25
2018-10-24 04:00:00 12.7 8 Noroeste 14 Noroeste 0 -- -- 64
2018-10-24 03:00:00 12.8 5 Oeste 18 Norte 0 -- -- 71
2018-10-24 02:00:00 13.6 5 Norte 17 Norte 0 -- -- 58
2018-10-24 01:00:00 13.8 6 Noroeste 17 Norte 0 -- -- 70
2018-10-24 00:00:00 13.6 6 Noroeste 12 Norte 0 -- -- 72
2018-10-23 23:00:00 15.5 5 Noroeste 20 Nordeste 0 -- -- 62
2018-10-23 22:00:00 19.5 11 Nordeste 31 Norte 0 -- -- 35
2018-10-23 21:00:00 19.4 7 Norte 36 Nordeste 0 -- -- 41
2018-10-23 20:00:00 19.8 13 Nordeste 29 Nordeste 0 -- -- 41
2018-10-23 19:00:00 21.2 7 Nordeste 22 Este 0 -- -- 43
2018-10-23 18:00:00 22.6 3 Sudoeste 10 Sudoeste 0 -- -- 49
2018-10-23 17:00:00 23.1 6 Sudoeste 17 Sur 0 -- -- 47
2018-10-23 16:00:00 23.6 8 Sur 19 Sur 0 -- -- 45
2018-10-23 15:00:00 24.5 7 Sur 14 Sur 0 -- -- 43
2018-10-23 14:00:00 24.2 5 Sudoeste 14 Oeste 0 -- -- 45
2018-10-23 13:00:00 23.1 8 Sudoeste 14 Sudoeste 0 -- -- 51
2018-10-23 12:00:00 21.4 4 Noroeste 20 Noroeste 0 -- -- 51
2018-10-23 11:00:00 19.2 10 Noroeste 22 Norte 0 -- -- 58
2018-10-23 10:00:00 16.6 8 Noroeste 18 Noroeste 0 -- -- 59
2018-10-23 09:00:00 13.2 7 Noroeste 19 Norte 0 -- -- 71
2018-10-23 08:00:00 15.9 7 Norte 21 Nordeste 0 -- -- 54
2018-10-23 07:00:00 16.8 9 Norte 28 Nordeste 0 -- -- 52
2018-10-23 06:00:00 16.1 10 Norte 26 Norte 0 -- -- 64
2018-10-23 05:00:00 16 5 Nordeste 23 Norte 0 -- -- 65
2018-10-23 04:00:00 15.2 6 Nordeste 16 Norte 0 -- -- 64
2018-10-23 03:00:00 15.4 5 Noroeste 23 Nordeste 0 -- -- 74
2018-10-23 02:00:00 17 5 Noroeste 23 Este 0 -- -- 55
2018-10-23 01:00:00 17.6 3 Norte 19 Nordeste 0 -- -- 55
2018-10-23 00:00:00 17.7 6 Nordeste 15 Nordeste 0 -- -- 55
2018-10-22 23:00:00 18.4 5 Norte 26 Norte 0 -- -- 54
2018-10-22 22:00:00 18.8 13 Nordeste 24 Nordeste 0 -- -- 56
2018-10-22 21:00:00 18.6 7 Norte 19 Norte 0 -- -- 61
2018-10-22 20:00:00 19 6 Norte 15 Nordeste 0 -- -- 61
2018-10-22 19:00:00 20.7 5 Norte 26 Norte 0 -- -- 49
2018-10-22 18:00:00 22.6 8 Nordeste 23 Norte 0 -- -- 43
2018-10-22 17:00:00 23.5 8 Nordeste 26 Nordeste 0 -- -- 47
2018-10-22 16:00:00 23.3 5 Sudoeste 12 Sudoeste 0 -- -- 57
2018-10-22 15:00:00 22.7 5 Sudeste 19 Sur 0 -- -- 61
2018-10-22 14:00:00 22.4 8 Sudeste 20 Sur 0 -- -- 60
2018-10-22 13:00:00 23.4 7 Este 15 Norte 0 -- -- 49
2018-10-22 12:00:00 22.8 3 Nordeste 17 Sudeste 0 -- -- 54
2018-10-22 11:00:00 21.5 7 Este 21 Sudeste 0 -- -- 59
2018-10-22 10:00:00 20 7 Este 24 Este 0 -- -- 66
2018-10-22 09:00:00 17.9 7 Nordeste 19 Este 0 -- -- 72
2018-10-22 08:00:00 17.5 6 Nordeste 26 Este 0 -- -- 66
2018-10-22 07:00:00 18.7 17 Este 31 Este 0 -- -- 59
2018-10-22 06:00:00 18.3 11 Este 23 Este 0 -- -- 67
2018-10-22 05:00:00 14.7 3 Nordeste 11 Este 0 -- -- 81
2018-10-22 04:00:00 14.4 0 Calma 9 Noroeste 0 -- -- 82
2018-10-22 03:00:00 15.6 2 Noroeste 14 Noroeste 0 -- -- 77
2018-10-22 02:00:00 15.8 7 Noroeste 16 Noroeste 0 -- -- 80
2018-10-22 01:00:00 16.3 8 Noroeste 16 Noroeste 0 -- -- 85
2018-10-22 00:00:00 16.7 8 Noroeste 13 Noroeste 0 -- -- 84
2018-10-21 23:00:00 16.9 5 Noroeste 10 Noroeste 0 -- -- 85
2018-10-21 22:00:00 17.9 5 Noroeste 11 Norte 0 -- -- 88
2018-10-21 21:00:00 18.8 4 Noroeste 9 Noroeste 0 -- -- 89
2018-10-21 20:00:00 19.5 2 Norte 7 Este 0 -- -- 88
2018-10-21 19:00:00 20.8 0 Calma 7 Sudoeste 0 -- -- 82
2018-10-21 18:00:00 22 4 Sur 10 Sudoeste 0 -- -- 77
2018-10-21 17:00:00 23.1 5 Sur 15 Sur 0 -- -- 73
2018-10-21 16:00:00 23.7 9 Sur 17 Sur 0 -- -- 70
2018-10-21 15:00:00 25.6 6 Sur 12 Oeste 0 -- -- 61
2018-10-21 14:00:00 24.8 4 Sur 12 Sudoeste 0 -- -- 57
2018-10-21 13:00:00 23.2 4 Sur 9 Sudoeste 0 -- -- 62
2018-10-21 12:00:00 21.8 3 Sudoeste 7 Oeste 0 -- -- 67
2018-10-21 11:00:00 19.8 0 Calma 4 Sur 0 -- -- 76
2018-10-21 10:00:00 15.9 2 Noroeste 5 Oeste 0 -- -- 90
2018-10-21 09:00:00 13.9 0 Calma 4 Este 0 -- -- 96
2018-10-21 08:00:00 14.1 0 Calma 6 Nordeste 0 -- -- 94
2018-10-21 07:00:00 14.4 0 Calma 7 Noroeste 0 -- -- 93
2018-10-21 06:00:00 14.5 4 Noroeste 7 Noroeste 0 -- -- 94
2018-10-21 05:00:00 14.4 3 Noroeste 5 Noroeste 0 -- -- 94
2018-10-21 04:00:00 14.8 3 Noroeste 6 Noroeste 0 -- -- 93
2018-10-21 03:00:00 15.4 4 Noroeste 8 Noroeste 0 -- -- 92
2018-10-21 02:00:00 16 2 Oeste 8 Noroeste 0 -- -- 91
2018-10-21 01:00:00 16.2 4 Norte 6 Noroeste 0 -- -- 91
2018-10-21 00:00:00 16.7 0 Calma 9 Noroeste 0 -- -- 90
2018-10-20 23:00:00 17 6 Noroeste 11 Noroeste 0 -- -- 90
2018-10-20 22:00:00 17.8 4 Noroeste 8 Noroeste 0 -- -- 88
2018-10-20 21:00:00 18.5 3 Noroeste 7 Oeste 0 -- -- 87
2018-10-20 20:00:00 19.2 4 Noroeste 7 Noroeste 0 -- -- 86
2018-10-20 19:00:00 20.3 0 Calma 9 Norte 0 -- -- 78
2018-10-20 18:00:00 20.8 4 Este 10 Sur 0 -- -- 77
2018-10-20 17:00:00 21.2 6 Sudeste 13 Este 0 -- -- 73
2018-10-20 16:00:00 21.9 5 Sudeste 12 Este 0 -- -- 66
2018-10-20 15:00:00 22.8 5 Sudeste 14 Sudeste 0 -- -- 60
2018-10-20 14:00:00 22.4 5 Este 17 Este 0 -- -- 60
2018-10-20 13:00:00 21.9 9 Este 19 Sudeste 0 -- -- 60
2018-10-20 12:00:00 21.2 4 Nordeste 14 Nordeste 0 -- -- 69
2018-10-20 11:00:00 19 3 Norte 12 Oeste 0 -- -- 82
2018-10-20 10:00:00 18 0 Calma 7 Noroeste 0 -- -- 85
2018-10-20 09:00:00 17.5 3 Sudoeste 7 Noroeste 0 -- -- 87
2018-10-20 08:00:00 17.9 0 Calma 9 Nordeste 0 -- -- 83
2018-10-20 07:00:00 17.9 2 Nordeste 6 Este 0 -- -- 81
2018-10-20 06:00:00 18 3 Sur 10 Norte 0 -- -- 81
2018-10-20 05:00:00 18 0 Calma 5 Noroeste 0 -- -- 80
2018-10-20 04:00:00 19.1 3 Norte 8 Nordeste 0 -- -- 75
2018-10-20 03:00:00 18.9 2 Nordeste 7 Nordeste 0 -- -- 76
2018-10-20 02:00:00 19.1 2 Norte 9 Norte 0 -- -- 75
2018-10-20 01:00:00 19.5 4 Nordeste 10 Nordeste 0 -- -- 75
2018-10-20 00:00:00 19.5 3 Nordeste 6 Norte 0 -- -- 76
2018-10-19 23:00:00 19.9 3 Este 11 Nordeste 0 -- -- 75
2018-10-19 22:00:00 19.7 6 Nordeste 13 Este 0 -- -- 76
2018-10-19 21:00:00 19.8 3 Nordeste 13 Nordeste 0 -- -- 74
2018-10-19 20:00:00 20.2 5 Este 11 Nordeste 0 -- -- 74
2018-10-19 19:00:00 20.9 3 Este 10 Nordeste 0 -- -- 73
2018-10-19 18:00:00 21.8 4 Nordeste 14 Este 0 -- -- 68
2018-10-19 17:00:00 22.5 5 Este 14 Sudeste 0 -- -- 64
2018-10-19 16:00:00 22.9 6 Este 16 Sudeste 0 -- -- 62
2018-10-19 15:00:00 23 8 Este 21 Este 0 -- -- 62
2018-10-19 14:00:00 22.9 4 Este 20 Nordeste 0 -- -- 63
2018-10-19 13:00:00 22 5 Nordeste 20 Nordeste 0 -- -- 65
2018-10-19 12:00:00 21.6 8 Nordeste 18 Nordeste 0 -- -- 64
2018-10-19 11:00:00 20.2 5 Nordeste 11 Nordeste 0 -- -- 70
2018-10-19 10:00:00 19.6 3 Este 13 Norte 0 -- -- 72
2018-10-19 09:00:00 18.6 6 Nordeste 14 Norte 0 -- -- 75
2018-10-19 08:00:00 18.6 5 Norte 13 Norte 0 -- -- 73
2018-10-19 07:00:00 18.6 3 Nordeste 14 Nordeste 0 -- -- 74
2018-10-19 06:00:00 19 6 Nordeste 14 Nordeste 0 -- -- 71
2018-10-19 05:00:00 19 5 Nordeste 12 Nordeste 0 -- -- 72
2018-10-19 04:00:00 19.3 5 Nordeste 16 Nordeste 0 -- -- 70
2018-10-19 03:00:00 20 7 Este 21 Nordeste 0 -- -- 65
2018-10-19 02:00:00 19.7 7 Nordeste 16 Norte 0 -- -- 68
2018-10-19 01:00:00 19 5 Nordeste 10 Norte 0 -- -- 75
2018-10-19 00:00:00 18.9 3 Norte 9 Nordeste 0 -- -- 78
2018-10-18 23:00:00 19.2 5 Norte 12 Nordeste 0 -- -- 75
2018-10-18 22:00:00 18.8 4 Norte 14 Nordeste 0 -- -- 76
2018-10-18 21:00:00 19.1 8 Nordeste 21 Nordeste 0 -- -- 74
2018-10-18 20:00:00 19.1 6 Nordeste 18 Nordeste 0 -- -- 76
2018-10-18 19:00:00 19.1 9 Nordeste 19 Norte 0 -- -- 77
2018-10-18 18:00:00 19.2 10 Nordeste 20 Nordeste 0 -- -- 80
2018-10-18 17:00:00 19.6 9 Nordeste 21 Norte 0 -- -- 82
2018-10-18 16:00:00 19.5 9 Nordeste 24 Nordeste 0 -- -- 83
2018-10-18 15:00:00 19.6 14 Nordeste 26 Nordeste 0 -- -- 84
2018-10-18 14:00:00 18.5 9 Nordeste 17 Norte 0 -- -- 90
2018-10-18 13:00:00 18.1 8 Nordeste 21 Nordeste 0.4 -- -- 93
2018-10-18 12:00:00 17.6 9 Nordeste 21 Nordeste 0.2 -- -- 92
2018-10-18 11:00:00 17.5 9 Nordeste 18 Nordeste 0 -- -- 95
2018-10-18 10:00:00 16.3 8 Norte 22 Nordeste 3.2 -- -- 97
2018-10-18 09:00:00 15.9 10 Norte 29 Nordeste 24.2 -- -- 97
2018-10-18 08:00:00 16.1 14 Nordeste 37 Nordeste 6 -- -- 96
2018-10-18 07:00:00 16.2 13 Nordeste 37 Nordeste 7 -- -- 96
2018-10-18 06:00:00 16.3 8 Nordeste 23 Nordeste 6 -- -- 95
2018-10-18 05:00:00 16.8 9 Nordeste 23 Norte 0.2 -- -- 91
2018-10-18 04:00:00 16.7 11 Nordeste 20 Nordeste 0.4 -- -- 90
2018-10-18 03:00:00 18 6 Nordeste 15 Nordeste 0 -- -- 83
2018-10-18 02:00:00 18.4 8 Nordeste 16 Norte 0 -- -- 81
2018-10-18 01:00:00 18.3 4 Norte 9 Norte 0 -- -- 81
2018-10-18 00:00:00 18.3 4 Norte 12 Norte 0 -- -- 81